createdAt,value
2022-08-10T00:02:19.147Z,38.93
2022-08-10T00:04:46.817Z,39.56
2022-08-10T00:07:14.500Z,39.75
2022-08-10T00:09:50.984Z,39.39
2022-08-10T00:12:20.348Z,39.44
2022-08-10T00:14:48.552Z,39.14
2022-08-10T00:17:16.291Z,39.74
2022-08-10T00:20:02.932Z,39.74
2022-08-10T00:22:34.015Z,39.96
2022-08-10T00:25:02.553Z,40.31
2022-08-10T00:27:52.894Z,40.30
2022-08-10T00:30:18.717Z,40.25
2022-08-10T00:32:46.372Z,40.43
2022-08-10T00:35:15.349Z,40.81
2022-08-10T00:37:43.057Z,41.42
2022-08-10T00:40:35.442Z,41.18
2022-08-10T00:43:06.086Z,41.41
2022-08-10T00:45:33.807Z,41.10
2022-08-10T00:48:01.479Z,40.94
2022-08-10T00:50:30.790Z,41.42
2022-08-10T00:52:58.805Z,41.64
2022-08-10T00:55:27.281Z,41.50
2022-08-10T00:57:56.409Z,41.72
2022-08-10T01:00:24.526Z,41.35
2022-08-10T01:02:53.138Z,41.60
2022-08-10T01:05:22.018Z,41.90
2022-08-10T01:08:16.655Z,42.26
2022-08-10T01:10:53.448Z,42.60
2022-08-10T01:13:33.742Z,42.81
2022-08-10T01:16:06.919Z,43.37
2022-08-10T01:18:49.641Z,43.25
2022-08-10T01:21:53.877Z,43.45
2022-08-10T01:25:00.147Z,43.27
2022-08-10T01:27:34.976Z,44.02
2022-08-10T01:30:08.915Z,44.34
2022-08-10T01:32:50.217Z,44.12
2022-08-10T01:35:25.543Z,44.11
2022-08-10T01:38:03.334Z,44.19
2022-08-10T01:40:36.792Z,44.70
2022-08-10T01:43:09.757Z,45.76
2022-08-10T01:45:44.528Z,45.88
2022-08-10T01:48:28.632Z,46.00
2022-08-10T01:51:01.526Z,46.02
2022-08-10T01:53:41.301Z,47.29
2022-08-10T01:56:11.869Z,47.73
2022-08-10T01:58:40.628Z,48.57
2022-08-10T02:01:16.823Z,49.41
2022-08-10T02:04:03.531Z,49.55
2022-08-10T02:06:36.708Z,50.25
2022-08-10T02:09:06.466Z,50.21
2022-08-10T02:12:06.036Z,51.38
2022-08-10T02:14:25.642Z,51.62
2022-08-10T02:17:03.761Z,52.31
2022-08-10T02:19:34.504Z,53.64
2022-08-10T02:22:37.115Z,54.53
2022-08-10T02:24:53.641Z,54.87
2022-08-10T02:27:25.944Z,55.24
2022-08-10T02:29:54.724Z,55.39
2022-08-10T02:32:36.132Z,56.15
2022-08-10T02:35:13.291Z,56.55
2022-08-10T02:37:51.445Z,56.87
2022-08-10T02:45:15.498Z,57.37
2022-08-10T02:45:21.463Z,57.80
2022-08-10T02:46:04.270Z,57.43
2022-08-10T02:48:42.055Z,58.51
2022-08-10T02:51:12.661Z,59.04
2022-08-10T02:53:55.070Z,58.98
2022-08-10T02:56:27.253Z,58.99
2022-08-10T02:58:57.823Z,59.95
2022-08-10T03:01:28.261Z,60.35
2022-08-10T03:04:00.136Z,60.79
2022-08-10T03:06:31.549Z,60.97
2022-08-10T03:09:00.277Z,61.40
2022-08-10T03:12:35.314Z,61.73
2022-08-10T03:14:18.056Z,62.21
2022-08-10T03:16:47.324Z,62.45
2022-08-10T03:20:34.894Z,62.82
2022-08-10T03:22:05.540Z,63.43
2022-08-10T03:24:33.695Z,63.31
2022-08-10T03:27:01.458Z,63.97
2022-08-10T03:29:29.698Z,64.67
2022-08-10T03:31:57.798Z,65.02
2022-08-10T03:34:33.548Z,65.78
2022-08-10T03:37:01.735Z,64.97
2022-08-10T03:39:29.457Z,65.20
2022-08-10T03:42:00.098Z,65.33
2022-08-10T03:44:31.116Z,65.87
2022-08-10T03:47:00.698Z,65.83
2022-08-10T03:49:30.863Z,65.92
2022-08-10T03:51:58.861Z,66.19
2022-08-10T03:54:27.618Z,66.65
2022-08-10T03:56:55.513Z,66.71
2022-08-10T03:59:23.228Z,67.11
2022-08-10T04:02:46.823Z,66.82
2022-08-10T04:04:40.455Z,67.66
2022-08-10T04:07:09.270Z,68.20
2022-08-10T04:09:54.615Z,68.33
2022-08-10T04:12:23.768Z,68.67
2022-08-10T04:14:53.330Z,68.18
2022-08-10T04:18:01.396Z,68.52
2022-08-10T04:20:13.081Z,69.22
2022-08-10T04:22:40.961Z,68.92
2022-08-10T04:25:09.759Z,69.42
2022-08-10T04:27:37.316Z,69.71
2022-08-10T04:30:05.450Z,70.44
2022-08-10T04:32:34.326Z,70.46
2022-08-10T04:35:04.654Z,70.45
2022-08-10T04:37:37.279Z,70.14
2022-08-10T04:40:29.934Z,69.82
2022-08-10T04:43:01.377Z,69.74
2022-08-10T04:45:48.793Z,69.14
2022-08-10T04:48:41.601Z,68.62
2022-08-10T04:51:07.901Z,68.55
2022-08-10T04:54:02.645Z,69.12
2022-08-10T04:56:31.698Z,68.70
2022-08-10T04:58:59.830Z,68.79
2022-08-10T05:01:27.595Z,68.47
2022-08-10T05:04:35.285Z,67.74
2022-08-10T05:07:02.602Z,67.67
2022-08-10T05:09:31.428Z,67.89
2022-08-10T05:11:58.914Z,67.68
2022-08-10T05:14:26.437Z,67.04
2022-08-10T05:16:53.945Z,66.73
2022-08-10T05:20:01.933Z,66.17
2022-08-10T05:22:08.964Z,65.12
2022-08-10T05:24:38.191Z,64.06
2022-08-10T05:27:10.023Z,63.31
2022-08-10T05:29:37.897Z,63.16
2022-08-10T05:32:05.906Z,62.31
2022-08-10T05:34:33.962Z,61.23
2022-08-10T05:37:01.573Z,60.84
2022-08-10T05:39:31.849Z,60.70
2022-08-10T05:42:02.636Z,59.82
2022-08-10T05:44:30.411Z,59.52
2022-08-10T05:46:58.229Z,58.66
2022-08-10T05:49:25.888Z,58.09
2022-08-10T05:51:53.669Z,57.91
2022-08-10T05:54:21.526Z,56.71
2022-08-10T05:56:54.147Z,56.80
2022-08-10T06:00:30.970Z,55.25
2022-08-10T06:02:31.948Z,54.21
2022-08-10T06:05:05.582Z,52.70
2022-08-10T06:07:33.613Z,51.51
2022-08-10T06:10:03.920Z,50.89
2022-08-10T06:12:55.741Z,49.49
2022-08-10T06:15:50.719Z,47.74
2022-08-10T06:18:15.357Z,45.52
2022-08-10T06:20:43.505Z,43.75
2022-08-10T06:23:12.963Z,42.89
2022-08-10T06:26:11.097Z,41.27
2022-08-10T06:28:34.117Z,42.17
2022-08-10T06:31:05.229Z,41.17
2022-08-10T06:33:36.996Z,40.27
2022-08-10T06:36:07.106Z,39.61
2022-08-10T06:38:36.917Z,39.17
2022-08-10T06:41:09.580Z,38.22
2022-08-10T06:43:41.441Z,37.37
2022-08-10T06:46:17.501Z,37.01
2022-08-10T06:48:50.737Z,36.42
2022-08-10T06:51:24.061Z,36.40
2022-08-10T06:53:55.431Z,34.88
2022-08-10T06:56:36.596Z,34.29
2022-08-10T06:59:13.341Z,33.69
2022-08-10T07:01:55.582Z,33.22
2022-08-10T07:04:31.925Z,32.66
2022-08-10T07:07:04.943Z,33.22
2022-08-10T07:09:36.002Z,33.55
2022-08-10T07:12:07.753Z,33.62
2022-08-10T07:14:39.457Z,33.65
2022-08-10T07:17:15.620Z,33.71
2022-08-10T07:19:50.493Z,33.78
2022-08-10T07:23:01.619Z,33.46
2022-08-10T07:25:13.855Z,33.70
2022-08-10T07:28:00.197Z,33.92
2022-08-10T07:30:30.650Z,33.27
2022-08-10T07:33:01.229Z,32.85
2022-08-10T07:35:36.407Z,32.54
2022-08-10T07:38:06.855Z,32.63
2022-08-10T07:40:35.667Z,31.90
2022-08-10T07:43:04.020Z,32.05
2022-08-10T07:45:34.369Z,32.73
2022-08-10T07:48:08.018Z,32.41
2022-08-10T07:50:38.574Z,32.03
2022-08-10T07:53:09.646Z,31.29
2022-08-10T07:56:05.687Z,31.42
2022-08-10T07:58:30.934Z,30.77
2022-08-10T08:01:01.206Z,30.53
2022-08-10T08:03:33.515Z,31.34
2022-08-10T08:06:09.059Z,30.98
2022-08-10T08:08:41.666Z,31.20
2022-08-10T08:11:10.331Z,30.98
2022-08-10T08:13:56.136Z,30.08
2022-08-10T08:16:25.645Z,29.29
2022-08-10T08:24:05.895Z,30.47
2022-08-10T08:24:36.911Z,30.12
2022-08-10T08:27:07.715Z,30.20
2022-08-10T08:29:38.348Z,29.65
2022-08-10T08:32:32.787Z,28.93
2022-08-10T08:35:04.509Z,28.76
2022-08-10T08:38:29.623Z,30.15
2022-08-10T08:40:26.054Z,29.72
2022-08-10T08:43:14.073Z,29.36
2022-08-10T08:46:01.937Z,28.84
2022-08-10T08:48:57.896Z,28.80
2022-08-10T08:52:07.903Z,29.15
2022-08-10T08:54:45.901Z,28.90
2022-08-10T08:57:49.511Z,28.43
2022-08-10T09:00:26.262Z,28.39
2022-08-10T09:03:35.519Z,27.85
2022-08-10T09:06:14.873Z,27.91
2022-08-10T09:09:09.316Z,27.85
2022-08-10T09:11:52.241Z,27.54
2022-08-10T09:14:27.019Z,27.42
2022-08-10T09:17:00.668Z,27.52
2022-08-10T09:19:34.955Z,26.85
2022-08-10T09:22:18.208Z,26.71
2022-08-10T09:24:55.336Z,26.83
2022-08-10T09:27:27.830Z,26.62
2022-08-10T09:29:57.292Z,25.94
2022-08-10T09:36:15.737Z,25.62
2022-08-10T09:36:27.002Z,25.39
2022-08-10T09:38:23.842Z,24.86
2022-08-10T09:41:04.077Z,24.90
2022-08-10T09:43:45.476Z,24.60
2022-08-10T09:46:27.314Z,24.67
2022-08-10T09:49:05.171Z,24.74
2022-08-10T09:51:48.064Z,24.77
2022-08-10T09:54:44.499Z,24.55
2022-08-10T09:57:44.988Z,24.08
2022-08-10T10:00:16.005Z,24.49
2022-08-10T10:02:56.228Z,23.98
2022-08-10T10:05:38.127Z,23.74
2022-08-10T10:08:17.630Z,24.12
2022-08-10T10:10:54.518Z,23.84
2022-08-10T10:13:52.728Z,23.94
2022-08-10T10:16:44.950Z,22.97
2022-08-10T10:19:36.165Z,23.18
2022-08-10T10:22:22.018Z,23.67
2022-08-10T10:24:56.837Z,24.78
2022-08-10T10:27:38.456Z,24.19
2022-08-10T10:30:10.917Z,22.67
2022-08-10T10:33:03.761Z,21.94
2022-08-10T10:35:37.988Z,22.65
2022-08-10T10:38:10.103Z,22.42
2022-08-10T10:40:44.950Z,22.73
2022-08-10T10:43:43.517Z,22.68
2022-08-10T10:46:25.688Z,22.79
2022-08-10T10:49:04.457Z,22.71
2022-08-10T10:51:39.205Z,21.87
2022-08-10T10:54:13.285Z,20.96
2022-08-10T10:56:55.271Z,22.56
2022-08-10T10:59:55.480Z,21.79
2022-08-10T11:02:47.409Z,22.03
2022-08-10T11:05:28.255Z,21.10
2022-08-10T11:08:01.010Z,22.07
2022-08-10T11:10:36.652Z,21.69
2022-08-10T11:14:26.345Z,21.87
2022-08-10T11:16:25.668Z,21.49
2022-08-10T11:19:00.034Z,21.33
2022-08-10T11:21:39.708Z,20.66
2022-08-10T11:24:48.419Z,21.38
2022-08-10T11:27:08.823Z,20.90
2022-08-10T11:29:52.823Z,20.90
2022-08-10T11:32:27.200Z,21.31
2022-08-10T11:35:11.279Z,21.08
2022-08-10T11:38:33.005Z,21.45
2022-08-10T11:40:40.282Z,20.91
2022-08-10T11:43:13.307Z,20.30
2022-08-10T11:45:51.370Z,20.64
2022-08-10T11:48:53.070Z,20.27
2022-08-10T11:51:22.366Z,20.26
2022-08-10T11:53:56.326Z,20.42
2022-08-10T11:56:31.031Z,20.30
2022-08-10T11:59:17.612Z,21.64
2022-08-10T12:01:48.162Z,20.87
2022-08-10T12:04:17.637Z,20.47
2022-08-10T12:06:56.434Z,20.44
2022-08-10T12:10:05.016Z,20.09
2022-08-10T12:12:14.204Z,19.95
2022-08-10T12:14:47.518Z,19.65
2022-08-10T12:17:21.620Z,20.41
2022-08-10T12:20:01.148Z,20.21
2022-08-10T12:22:37.594Z,20.20
2022-08-10T12:25:10.430Z,20.09
2022-08-10T12:27:42.616Z,19.66
2022-08-10T12:30:14.423Z,19.31
2022-08-10T12:32:46.468Z,19.83
2022-08-10T12:35:26.343Z,20.11
2022-08-10T12:38:06.912Z,19.78
2022-08-10T12:40:41.025Z,19.81
2022-08-10T12:44:07.806Z,20.26
2022-08-10T12:46:08.200Z,19.69
2022-08-10T12:48:39.537Z,19.92
2022-08-10T12:51:14.541Z,20.30
2022-08-10T12:53:51.088Z,20.04
2022-08-10T12:56:27.081Z,19.64
2022-08-10T12:59:01.170Z,19.45
2022-08-10T13:02:06.514Z,18.94
2022-08-10T13:04:28.832Z,19.38
2022-08-10T13:06:59.481Z,19.44
2022-08-10T13:09:29.126Z,19.55
2022-08-10T13:12:37.152Z,19.42
2022-08-10T13:14:54.213Z,20.36
2022-08-10T13:17:39.133Z,19.65
2022-08-10T13:20:17.135Z,20.45
2022-08-10T13:22:48.721Z,19.74
2022-08-10T13:25:21.256Z,19.28
2022-08-10T13:28:02.614Z,19.33
2022-08-10T13:30:40.527Z,19.35
2022-08-10T13:33:11.870Z,19.22
2022-08-10T13:35:40.243Z,19.60
2022-08-10T13:38:09.873Z,19.94
2022-08-10T13:40:40.507Z,19.75
2022-08-10T13:43:09.932Z,19.80
2022-08-10T13:45:47.901Z,19.19
2022-08-10T13:48:20.635Z,20.00
2022-08-10T13:50:51.689Z,19.14
2022-08-10T13:53:23.359Z,19.43
2022-08-10T13:55:56.855Z,18.61
2022-08-10T13:58:30.198Z,18.24
2022-08-10T14:01:00.013Z,18.61
2022-08-10T14:03:29.213Z,19.36
2022-08-10T14:05:59.328Z,19.30
2022-08-10T14:08:30.435Z,19.12
2022-08-10T14:11:11.537Z,19.18
2022-08-10T14:13:45.420Z,18.65
2022-08-10T14:16:14.501Z,18.34
2022-08-10T14:18:45.092Z,19.62
2022-08-10T14:21:13.828Z,19.47
2022-08-10T14:23:42.319Z,18.89
2022-08-10T14:26:24.464Z,18.19
2022-08-10T14:28:55.171Z,18.70
2022-08-10T14:31:30.014Z,18.61
2022-08-10T14:34:01.159Z,18.71
2022-08-10T14:36:42.376Z,18.95
2022-08-10T14:39:15.699Z,19.09
2022-08-10T14:42:03.138Z,19.04
2022-08-10T14:44:44.830Z,19.00
2022-08-10T14:47:54.230Z,18.64
2022-08-10T14:50:04.109Z,18.82
2022-08-10T14:52:44.081Z,18.31
2022-08-10T14:55:19.575Z,18.31
2022-08-10T14:58:19.646Z,19.15
2022-08-10T15:00:43.061Z,19.31
2022-08-10T15:04:00.837Z,19.17
2022-08-10T15:06:09.295Z,19.35
2022-08-10T15:08:46.948Z,19.64
2022-08-10T15:12:15.110Z,20.00
2022-08-10T15:14:15.155Z,20.02
2022-08-10T15:16:56.538Z,20.49
2022-08-10T15:20:00.866Z,20.52
2022-08-10T15:22:36.565Z,20.59
2022-08-10T15:25:18.033Z,20.80
2022-08-10T15:27:53.556Z,21.05
2022-08-10T15:30:29.823Z,21.09
2022-08-10T15:33:20.929Z,20.67
2022-08-10T15:36:08.737Z,20.58
2022-08-10T15:38:40.309Z,20.85
2022-08-10T15:41:16.072Z,20.37
2022-08-10T15:43:46.928Z,20.11
2022-08-10T15:46:29.851Z,20.11
2022-08-10T15:49:03.039Z,19.97
2022-08-10T15:51:53.587Z,20.25
2022-08-10T15:54:33.300Z,20.09
2022-08-10T15:57:04.632Z,20.40
2022-08-10T15:59:41.776Z,20.12
2022-08-10T16:02:17.503Z,20.02
2022-08-10T16:04:50.233Z,20.26
2022-08-10T16:07:22.758Z,20.40
2022-08-10T16:10:28.039Z,20.59
2022-08-10T16:13:01.134Z,20.36
2022-08-10T16:15:31.035Z,19.98
2022-08-10T16:18:02.989Z,20.46
2022-08-10T16:20:53.342Z,20.63
2022-08-10T16:23:26.003Z,20.82
2022-08-10T16:25:58.328Z,20.54
2022-08-10T16:28:33.087Z,20.81
2022-08-10T16:31:03.007Z,20.54
2022-08-10T16:33:53.148Z,20.77
2022-08-10T16:36:23.356Z,20.56
2022-08-10T16:38:53.551Z,20.79
2022-08-10T16:42:02.137Z,20.61
2022-08-10T16:44:17.417Z,20.71
2022-08-10T16:46:46.738Z,20.63
2022-08-10T16:49:19.310Z,20.36
2022-08-10T16:51:49.188Z,20.48
2022-08-10T16:54:26.282Z,20.66
2022-08-10T16:57:01.004Z,20.73
2022-08-10T16:59:31.648Z,20.73
2022-08-10T17:02:01.289Z,20.88
2022-08-10T17:04:32.222Z,20.83
2022-08-10T17:07:01.549Z,21.14
2022-08-10T17:09:32.986Z,21.59
2022-08-10T17:12:05.884Z,21.61
2022-08-10T17:14:33.892Z,21.69
2022-08-10T17:17:07.171Z,21.47
2022-08-10T17:19:40.902Z,21.88
2022-08-10T17:22:14.247Z,22.02
2022-08-10T17:24:47.266Z,22.07
2022-08-10T17:28:32.836Z,22.21
2022-08-10T17:30:13.974Z,22.20
2022-08-10T17:32:46.957Z,21.89
2022-08-10T17:35:23.606Z,22.22
2022-08-10T17:37:57.636Z,22.65
2022-08-10T17:40:28.445Z,22.95
2022-08-10T17:42:57.031Z,22.70
2022-08-10T17:45:47.749Z,22.73
2022-08-10T17:48:15.365Z,22.84
2022-08-10T17:50:50.124Z,22.85
2022-08-10T17:53:22.221Z,22.83
2022-08-10T17:55:55.408Z,23.31
2022-08-10T17:58:27.059Z,23.36
2022-08-10T18:01:38.539Z,23.54
2022-08-10T18:03:52.124Z,23.66
2022-08-10T18:06:23.056Z,23.95
2022-08-10T18:08:56.830Z,24.15
2022-08-10T18:11:29.982Z,24.10
2022-08-10T18:14:02.907Z,24.19
2022-08-10T18:16:34.054Z,24.29
2022-08-10T18:19:06.147Z,24.87
2022-08-10T18:21:40.069Z,24.95
2022-08-10T18:24:16.496Z,25.16
2022-08-10T18:26:46.998Z,24.95
2022-08-10T18:29:18.826Z,24.93
2022-08-10T18:31:49.537Z,25.03
2022-08-10T18:34:23.362Z,25.74
2022-08-10T18:36:54.169Z,25.91
2022-08-10T18:39:25.467Z,25.90
2022-08-10T18:42:00.684Z,26.17
2022-08-10T18:44:37.028Z,25.90
2022-08-10T18:47:10.434Z,26.07
2022-08-10T18:49:51.602Z,26.25
2022-08-10T18:52:24.064Z,26.83
2022-08-10T18:54:55.482Z,26.96
2022-08-10T18:57:35.879Z,27.38
2022-08-10T19:00:10.030Z,27.37
2022-08-10T19:03:06.194Z,27.48
2022-08-10T19:05:54.564Z,27.77
2022-08-10T19:08:49.213Z,27.79
2022-08-10T19:11:30.912Z,27.75
2022-08-10T19:14:04.253Z,27.67
2022-08-10T19:16:40.821Z,27.67
2022-08-10T19:19:22.945Z,28.09
2022-08-10T19:22:00.996Z,28.88
2022-08-10T19:24:44.285Z,29.51
2022-08-10T19:27:22.454Z,29.50
2022-08-10T19:30:12.102Z,29.72
2022-08-10T19:33:07.251Z,30.46
2022-08-10T19:36:03.052Z,31.22
2022-08-10T19:38:49.603Z,31.07
2022-08-10T19:41:31.872Z,32.16
2022-08-10T19:44:13.468Z,31.86
2022-08-10T19:46:45.549Z,31.88
2022-08-10T19:49:32.004Z,32.17
2022-08-10T19:52:12.009Z,32.47
2022-08-10T19:54:50.604Z,32.86
2022-08-10T19:57:30.313Z,32.82
2022-08-10T20:00:19.633Z,33.09
2022-08-10T20:03:11.818Z,33.60
2022-08-10T20:06:13.091Z,33.91
2022-08-10T20:08:45.743Z,34.35
2022-08-10T20:11:45.548Z,34.70
2022-08-10T20:14:21.584Z,34.99
2022-08-10T20:16:56.220Z,35.21
2022-08-10T20:19:53.398Z,35.29
2022-08-10T20:22:29.842Z,35.74
2022-08-10T20:25:03.372Z,36.15
2022-08-10T20:28:00.219Z,36.26
2022-08-10T20:30:30.016Z,36.15
2022-08-10T20:33:09.416Z,36.54
2022-08-10T20:35:48.364Z,37.01
2022-08-10T20:38:27.144Z,37.13
2022-08-10T20:41:04.435Z,37.43
2022-08-10T20:43:42.726Z,37.53
2022-08-10T20:46:23.507Z,37.72
2022-08-10T20:48:57.951Z,38.11
2022-08-10T20:51:59.368Z,38.48
2022-08-10T20:54:22.697Z,38.91
2022-08-10T20:57:07.079Z,39.16
2022-08-10T21:00:06.697Z,38.85
2022-08-10T21:03:06.619Z,39.40
2022-08-10T21:05:50.196Z,39.43
2022-08-10T21:08:30.087Z,39.93
2022-08-10T21:11:08.505Z,40.26
2022-08-10T21:13:55.007Z,40.40
2022-08-10T21:16:37.986Z,40.49
2022-08-10T21:19:29.995Z,40.98
2022-08-10T21:22:12.999Z,40.83
2022-08-10T21:24:52.215Z,41.51
2022-08-10T21:27:41.078Z,41.41
2022-08-10T21:30:10.175Z,41.43
2022-08-10T21:32:54.500Z,41.40
2022-08-10T21:35:36.503Z,41.81
2022-08-10T21:38:11.702Z,41.81
2022-08-10T21:41:18.322Z,42.44
2022-08-10T21:44:08.323Z,42.61
2022-08-10T21:47:07.467Z,42.97
2022-08-10T21:50:17.131Z,42.97
2022-08-10T21:53:16.790Z,43.52
2022-08-10T21:56:14.112Z,43.56
2022-08-10T21:59:06.792Z,43.78
2022-08-10T22:01:57.370Z,43.79
2022-08-10T22:04:45.470Z,44.20
2022-08-10T22:07:36.296Z,44.43
2022-08-10T22:10:26.013Z,44.92
2022-08-10T22:13:13.958Z,45.11
2022-08-10T22:16:09.856Z,44.98
2022-08-10T22:19:02.899Z,45.24
2022-08-10T22:22:04.410Z,45.64
2022-08-10T22:25:16.752Z,45.59
2022-08-10T22:28:17.777Z,45.38
2022-08-10T22:31:29.840Z,45.85
2022-08-10T22:34:24.813Z,46.03
2022-08-10T22:37:24.178Z,46.74
2022-08-10T22:40:20.805Z,46.69
2022-08-10T22:43:12.127Z,47.00
2022-08-10T22:46:05.336Z,46.85
2022-08-10T22:48:59.449Z,47.48
2022-08-10T22:51:35.619Z,47.63
2022-08-10T22:54:31.057Z,47.54
2022-08-10T22:57:18.585Z,48.17
2022-08-10T22:59:49.269Z,48.08
2022-08-10T23:02:34.125Z,48.16
2022-08-10T23:05:10.167Z,48.30
2022-08-10T23:07:47.403Z,48.17
2022-08-10T23:10:17.318Z,48.52
2022-08-10T23:12:49.770Z,48.83
2022-08-10T23:15:45.028Z,48.82
2022-08-10T23:18:36.585Z,48.62
2022-08-10T23:21:05.830Z,48.81
2022-08-10T23:28:38.729Z,49.46
2022-08-10T23:31:50.302Z,48.76
2022-08-10T23:34:12.523Z,49.46
2022-08-10T23:36:42.147Z,49.39
2022-08-10T23:39:27.360Z,49.90
2022-08-10T23:42:04.723Z,49.89
2022-08-10T23:44:42.668Z,50.52
2022-08-10T23:47:13.417Z,50.53
2022-08-10T23:49:42.010Z,50.97
2022-08-10T23:52:11.151Z,51.11
2022-08-10T23:54:43.682Z,51.42
2022-08-10T23:57:15.343Z,51.23
2022-08-10T23:59:44.009Z,51.35
